Time;durP1;ratioP1;P1;durP2;ratioP2;P2;SDS_P1;SDS_P2;PMS_P1;PMS_P2;Temp;Humidity;BMP_temperature;BMP_pressure;BME280_temperature;BME280_humidity;BME280_pressure;Samples;Min_cycle;Max_cycle;Signal;HPM_P1;HPM_P2
2021/08/03 00:00:27;;;;;;;4.82;3.08;;;19.20;99.90;;;;;;5069084;28;20234;-73
2021/08/03 00:02:58;;;;;;;3.20;2.90;;;19.20;99.90;;;;;;5073214;28;20255;-72
2021/08/03 00:05:28;;;;;;;3.70;2.45;;;19.10;99.90;;;;;;5073378;28;20209;-71
2021/08/03 00:08:02;;;;;;;2.88;2.13;;;19.10;99.90;;;;;;5073603;28;20792;-73
2021/08/03 00:10:30;;;;;;;3.20;2.65;;;19.10;99.90;;;;;;5072390;28;20252;-72
2021/08/03 00:13:02;;;;;;;3.45;2.15;;;19.10;99.90;;;;;;5061137;28;20202;-72
2021/08/03 00:15:30;;;;;;;2.50;2.20;;;19.10;99.90;;;;;;5074094;28;20210;-72
2021/08/03 00:17:57;;;;;;;2.70;1.90;;;19.10;99.90;;;;;;5073708;28;20670;-71
2021/08/03 00:20:26;;;;;;;2.28;1.90;;;19.10;99.90;;;;;;5073978;28;20230;-70
2021/08/03 00:22:57;;;;;;;3.00;2.60;;;19.10;99.90;;;;;;5074007;28;20214;-71
2021/08/03 00:25:26;;;;;;;3.33;2.67;;;19.10;99.90;;;;;;5073953;28;20214;-70
2021/08/03 00:27:53;;;;;;;5.15;2.88;;;19.10;99.90;;;;;;5073813;28;20229;-71
2021/08/03 00:30:24;;;;;;;3.40;2.90;;;19.10;99.90;;;;;;5073355;28;20267;-71
2021/08/03 00:32:52;;;;;;;4.68;3.13;;;19.00;99.90;;;;;;5073201;28;20213;-71
2021/08/03 00:35:19;;;;;;;3.35;2.40;;;19.00;99.90;;;;;;5073367;28;20207;-71
2021/08/03 00:37:46;;;;;;;4.78;3.00;;;19.10;99.90;;;;;;5073391;28;20210;-71
2021/08/03 00:40:15;;;;;;;2.80;2.60;;;19.00;99.90;;;;;;5072893;28;20238;-71
2021/08/03 00:42:42;;;;;;;4.20;2.88;;;19.00;99.90;;;;;;5073470;28;20673;-71
2021/08/03 00:45:10;;;;;;;2.55;2.30;;;18.90;99.90;;;;;;5073192;28;20224;-71
2021/08/03 00:47:39;;;;;;;3.63;3.20;;;18.90;99.90;;;;;;5073404;28;20205;-71
2021/08/03 00:50:07;;;;;;;3.83;3.17;;;18.90;99.90;;;;;;5073094;28;20206;-71
2021/08/03 00:52:35;;;;;;;2.97;2.40;;;18.80;99.90;;;;;;5073570;28;20212;-71
2021/08/03 00:55:02;;;;;;;3.28;2.55;;;18.70;99.90;;;;;;5072845;28;20220;-72
2021/08/03 00:57:29;;;;;;;3.42;3.00;;;18.70;99.90;;;;;;5073105;28;20293;-71
2021/08/03 00:59:58;;;;;;;2.72;2.17;;;18.60;99.90;;;;;;5072980;28;20226;-70
2021/08/03 01:02:25;;;;;;;3.30;2.60;;;18.60;99.90;;;;;;5073497;28;20216;-71
2021/08/03 01:04:54;;;;;;;2.90;2.70;;;18.70;99.90;;;;;;5073386;28;20743;-71
2021/08/03 01:07:35;;;;;;;4.03;2.78;;;18.80;99.90;;;;;;5072481;28;20677;-71
2021/08/03 01:10:12;;;;;;;4.68;3.05;;;18.80;99.90;;;;;;5072514;28;20214;-71
2021/08/03 01:12:49;;;;;;;3.53;3.22;;;18.80;99.90;;;;;;5072047;28;20194;-71
2021/08/03 01:15:18;;;;;;;3.53;3.20;;;18.80;99.90;;;;;;5072461;28;20695;-71
2021/08/03 01:17:53;;;;;;;4.68;2.55;;;18.80;99.90;;;;;;5072858;28;20202;-70
2021/08/03 01:20:25;;;;;;;4.20;2.92;;;18.70;99.90;;;;;;5072606;28;20217;-70
2021/08/03 01:23:16;;;;;;;4.20;2.95;;;18.80;99.90;;;;;;5072805;28;20256;-71
2021/08/03 01:25:59;;;;;;;3.28;2.55;;;18.80;99.90;;;;;;5072718;28;20203;-71
2021/08/03 01:28:29;;;;;;;3.20;2.65;;;18.80;99.90;;;;;;5072893;28;20271;-70
2021/08/03 01:31:01;;;;;;;3.60;3.15;;;18.80;99.90;;;;;;5072790;28;20214;-71
2021/08/03 01:33:31;;;;;;;3.22;2.92;;;18.70;99.90;;;;;;5072733;28;20232;-70
2021/08/03 01:36:01;;;;;;;4.00;3.10;;;18.70;99.90;;;;;;5072350;28;20206;-70
2021/08/03 01:38:30;;;;;;;2.90;2.70;;;18.70;99.90;;;;;;5072685;28;20272;-70
2021/08/03 01:41:01;;;;;;;4.28;2.58;;;18.60;99.90;;;;;;5072307;28;20658;-71
2021/08/03 01:43:30;;;;;;;4.70;2.67;;;18.50;99.90;;;;;;5072502;28;20206;-70
2021/08/03 01:45:59;;;;;;;3.17;2.90;;;18.40;99.90;;;;;;5072344;28;20202;-71
2021/08/03 01:48:27;;;;;;;10.13;4.18;;;18.40;99.90;;;;;;5072279;28;20263;-71
2021/08/03 01:50:55;;;;;;;3.65;3.28;;;18.50;99.90;;;;;;5072605;28;20206;-71
2021/08/03 01:53:25;;;;;;;3.10;2.80;;;18.50;99.90;;;;;;5072244;28;20289;-71
2021/08/03 01:55:54;;;;;;;3.17;2.90;;;18.70;99.90;;;;;;5058580;28;20259;-72
2021/08/03 01:58:21;;;;;;;3.53;2.78;;;18.70;99.90;;;;;;5071670;28;20206;-72
2021/08/03 02:00:51;;;;;;;3.80;2.92;;;18.70;99.90;;;;;;5071904;28;20230;-72
2021/08/03 02:03:21;;;;;;;3.17;2.88;;;18.70;99.90;;;;;;5072003;28;20221;-72
2021/08/03 02:05:50;;;;;;;3.80;3.50;;;18.70;99.90;;;;;;5071947;28;20206;-72
2021/08/03 02:08:19;;;;;;;2.65;2.45;;;18.70;99.90;;;;;;5071348;28;20202;-71
2021/08/03 02:10:47;;;;;;;3.58;3.00;;;18.60;99.90;;;;;;5071770;28;20210;-72
2021/08/03 02:13:16;;;;;;;2.67;2.47;;;18.60;99.90;;;;;;5071786;28;20210;-72
2021/08/03 02:15:44;;;;;;;3.22;2.92;;;18.40;99.90;;;;;;5071803;28;20267;-72
2021/08/03 02:18:16;;;;;;;2.78;2.58;;;18.30;99.90;;;;;;5071530;28;20198;-72
2021/08/03 02:20:44;;;;;;;5.57;3.05;;;18.20;99.90;;;;;;5071254;28;20230;-72
2021/08/03 02:23:12;;;;;;;3.80;3.20;;;18.10;99.90;;;;;;5071242;28;20202;-72
2021/08/03 02:25:40;;;;;;;4.10;2.78;;;18.10;99.90;;;;;;5071591;28;20251;-72
2021/08/03 02:28:07;;;;;;;2.97;2.72;;;18.20;99.90;;;;;;5077857;28;20306;-71
2021/08/03 02:30:34;;;;;;;3.25;2.90;;;18.20;99.90;;;;;;5091816;28;20213;-72
2021/08/03 02:33:06;;;;;;;2.95;2.75;;;18.10;99.90;;;;;;5091114;28;20677;-72
2021/08/03 02:35:40;;;;;;;3.72;3.42;;;18.10;99.90;;;;;;5091452;28;20201;-72
2021/08/03 02:38:13;;;;;;;3.45;3.15;;;18.10;99.90;;;;;;5091247;28;20213;-72
2021/08/03 02:40:42;;;;;;;2.95;2.60;;;18.10;99.90;;;;;;5091186;28;20217;-72
2021/08/03 02:43:11;;;;;;;3.45;3.15;;;18.00;99.90;;;;;;5091309;28;20202;-71
2021/08/03 02:45:40;;;;;;;3.97;2.85;;;17.90;99.90;;;;;;5091323;28;20202;-72
2021/08/03 02:48:12;;;;;;;4.70;3.05;;;17.90;99.90;;;;;;5090890;28;20202;-71
2021/08/03 02:50:43;;;;;;;7.30;3.33;;;17.90;99.90;;;;;;5090910;28;20198;-72
2021/08/03 02:53:15;;;;;;;3.92;3.20;;;17.90;99.90;;;;;;5091025;28;20206;-71
2021/08/03 02:55:48;;;;;;;3.35;3.00;;;17.80;99.90;;;;;;5091299;28;20205;-72
2021/08/03 02:58:19;;;;;;;3.17;2.28;;;17.90;99.90;;;;;;5090856;28;20267;-71
2021/08/03 03:00:49;;;;;;;3.65;2.97;;;17.90;99.90;;;;;;5090957;28;20245;-71
2021/08/03 03:03:20;;;;;;;4.60;3.28;;;18.00;99.90;;;;;;5090762;28;20722;-71
2021/08/03 03:05:52;;;;;;;2.83;2.63;;;18.00;99.90;;;;;;5090767;28;20261;-71
2021/08/03 03:08:24;;;;;;;3.35;3.05;;;18.10;99.90;;;;;;5090500;28;20201;-71
2021/08/03 03:10:54;;;;;;;3.05;2.85;;;18.20;99.90;;;;;;5091520;28;20232;-71
2021/08/03 03:13:28;;;;;;;3.53;3.10;;;18.10;99.90;;;;;;5090479;28;20263;-72
2021/08/03 03:15:56;;;;;;;2.80;2.33;;;18.00;99.90;;;;;;5091463;28;20258;-72
2021/08/03 03:18:24;;;;;;;3.00;2.80;;;18.00;99.90;;;;;;5090900;28;20259;-72
2021/08/03 03:20:53;;;;;;;3.70;2.90;;;18.00;99.90;;;;;;5091320;28;20308;-72
2021/08/03 03:23:24;;;;;;;4.40;3.22;;;18.00;99.90;;;;;;5090402;28;20215;-73
2021/08/03 03:25:52;;;;;;;3.28;2.97;;;18.00;99.90;;;;;;5090812;28;20665;-72
2021/08/03 03:28:26;;;;;;;4.75;3.45;;;17.90;99.90;;;;;;5090073;28;20266;-72
2021/08/03 03:30:53;;;;;;;3.10;2.70;;;17.80;99.90;;;;;;5091121;28;20267;-72
2021/08/03 03:33:22;;;;;;;3.42;2.38;;;17.70;99.90;;;;;;5090025;28;20263;-72
2021/08/03 03:35:50;;;;;;;3.30;3.00;;;17.70;99.90;;;;;;5090013;28;20665;-72
2021/08/03 03:38:22;;;;;;;3.30;2.85;;;17.70;99.90;;;;;;5090368;28;20206;-71
2021/08/03 03:40:50;;;;;;;4.20;2.60;;;17.80;99.90;;;;;;5090748;28;20210;-71
2021/08/03 03:43:19;;;;;;;3.08;2.25;;;17.90;99.90;;;;;;5090257;28;20205;-72
2021/08/03 03:45:49;;;;;;;3.53;2.58;;;17.90;99.90;;;;;;5090554;28;20205;-72
2021/08/03 03:48:21;;;;;;;4.20;2.67;;;17.90;99.90;;;;;;5089940;28;20209;-72
2021/08/03 03:50:50;;;;;;;3.40;2.40;;;17.90;99.90;;;;;;5090180;28;20209;-72
2021/08/03 03:53:23;;;;;;;4.07;3.20;;;17.80;99.90;;;;;;5090235;28;20687;-71
2021/08/03 03:55:53;;;;;;;2.78;2.58;;;17.80;99.90;;;;;;5090475;28;20202;-72
2021/08/03 03:58:21;;;;;;;2.70;2.50;;;17.80;99.90;;;;;;5090401;28;20262;-71
2021/08/03 04:00:49;;;;;;;5.88;3.58;;;17.70;99.90;;;;;;5090356;28;20712;-71
2021/08/03 04:03:19;;;;;;;3.38;2.78;;;17.70;99.90;;;;;;5089796;28;20212;-72
2021/08/03 04:05:48;;;;;;;2.67;2.10;;;17.80;99.90;;;;;;5090137;28;20669;-70
2021/08/03 04:08:15;;;;;;;7.38;2.65;;;17.80;99.90;;;;;;5090163;28;20284;-71
2021/08/03 04:10:44;;;;;;;3.10;2.85;;;17.70;99.90;;;;;;5090597;28;20209;-71
2021/08/03 04:13:13;;;;;;;3.13;2.58;;;17.60;99.90;;;;;;5062854;28;20198;-73
2021/08/03 04:15:40;;;;;;;4.07;2.60;;;17.60;99.90;;;;;;5090172;28;20333;-72
2021/08/03 04:18:08;;;;;;;4.53;2.60;;;17.70;99.90;;;;;;5089348;28;20231;-72
2021/08/03 04:20:35;;;;;;;4.97;2.20;;;17.70;99.90;;;;;;5090320;28;20255;-72
2021/08/03 04:23:02;;;;;;;4.72;2.65;;;17.70;99.90;;;;;;5089538;28;20559;-73
2021/08/03 04:25:29;;;;;;;2.40;2.20;;;17.70;99.90;;;;;;5090135;28;20664;-72
2021/08/03 04:27:57;;;;;;;2.90;2.60;;;17.60;99.90;;;;;;5090294;28;20221;-72
2021/08/03 04:30:24;;;;;;;2.97;2.78;;;17.60;99.90;;;;;;5090373;28;20296;-72
2021/08/03 04:32:51;;;;;;;4.40;3.13;;;17.60;99.90;;;;;;5089811;28;20208;-72
2021/08/03 04:35:18;;;;;;;2.72;2.47;;;17.50;99.90;;;;;;5089612;28;20247;-72
2021/08/03 04:37:47;;;;;;;3.50;2.70;;;17.30;99.90;;;;;;5090168;28;20201;-72
2021/08/03 04:40:16;;;;;;;3.95;2.78;;;17.30;99.90;;;;;;5089194;28;20583;-72
2021/08/03 04:42:44;;;;;;;3.42;3.10;;;17.30;99.90;;;;;;5089892;28;20278;-72
2021/08/03 04:45:12;;;;;;;3.28;2.47;;;17.30;99.90;;;;;;5089564;28;20263;-72
2021/08/03 04:47:44;;;;;;;4.28;3.88;;;17.20;99.90;;;;;;5090237;28;20673;-72
2021/08/03 04:50:14;;;;;;;3.28;2.88;;;17.10;99.90;;;;;;5093294;28;20201;-72
2021/08/03 04:52:42;;;;;;;4.25;3.40;;;17.10;99.90;;;;;;5093557;28;20210;-73
2021/08/03 04:55:09;;;;;;;4.22;3.17;;;17.00;99.90;;;;;;5093262;28;20620;-72
2021/08/03 04:57:36;;;;;;;3.38;3.08;;;17.00;99.90;;;;;;5093155;28;20267;-71
2021/08/03 05:00:06;;;;;;;2.97;2.78;;;17.10;99.90;;;;;;5093265;28;20201;-71
2021/08/03 05:02:34;;;;;;;3.00;2.80;;;17.10;99.90;;;;;;5093334;28;20237;-71
2021/08/03 05:05:02;;;;;;;3.17;2.88;;;17.20;99.90;;;;;;5093175;28;20205;-71
2021/08/03 05:07:29;;;;;;;4.25;3.20;;;17.20;99.90;;;;;;5093294;28;20693;-71
2021/08/03 05:10:00;;;;;;;3.05;2.75;;;17.10;99.90;;;;;;5093566;28;20210;-72
2021/08/03 05:12:27;;;;;;;4.85;3.25;;;17.20;99.90;;;;;;5093261;28;20217;-71
2021/08/03 05:14:58;;;;;;;5.05;3.35;;;17.30;99.90;;;;;;5093307;28;20251;-70
2021/08/03 05:17:25;;;;;;;3.42;2.92;;;17.40;99.90;;;;;;5093651;28;20202;-70
2021/08/03 05:19:53;;;;;;;4.95;3.30;;;17.50;99.90;;;;;;5093380;28;20201;-71
2021/08/03 05:22:20;;;;;;;3.60;3.30;;;17.60;99.90;;;;;;5092694;28;20287;-71
2021/08/03 05:24:47;;;;;;;3.35;2.78;;;17.60;99.90;;;;;;5093046;28;20205;-71
2021/08/03 05:27:14;;;;;;;4.38;3.08;;;17.70;99.90;;;;;;5092837;28;20606;-70
2021/08/03 05:29:41;;;;;;;3.80;3.10;;;17.70;99.90;;;;;;5092628;28;20239;-70
2021/08/03 05:32:08;;;;;;;4.43;3.10;;;17.80;99.90;;;;;;5092744;28;20201;-71
2021/08/03 05:34:35;;;;;;;4.05;2.83;;;17.80;99.90;;;;;;5092552;28;20735;-71
2021/08/03 05:37:05;;;;;;;3.88;3.40;;;17.90;99.90;;;;;;5092023;28;20255;-71
2021/08/03 05:39:32;;;;;;;3.75;3.15;;;17.90;99.90;;;;;;5093093;28;20266;-71
2021/08/03 05:41:59;;;;;;;4.68;3.45;;;18.00;99.90;;;;;;5092092;28;20233;-70
2021/08/03 05:44:26;;;;;;;6.95;3.30;;;18.00;99.90;;;;;;5092548;28;20623;-74
2021/08/03 05:46:53;;;;;;;4.32;2.95;;;18.10;99.90;;;;;;5093094;28;20214;-73
2021/08/03 05:49:20;;;;;;;3.60;2.88;;;18.30;99.90;;;;;;5064218;28;20730;-75
2021/08/03 05:51:47;;;;;;;4.30;3.20;;;18.50;99.90;;;;;;5080798;28;20210;-73
2021/08/03 05:54:16;;;;;;;3.90;3.08;;;18.60;99.90;;;;;;5077696;28;20264;-75
2021/08/03 05:56:43;;;;;;;3.92;3.20;;;18.70;99.90;;;;;;5071609;28;20207;-73
2021/08/03 05:59:10;;;;;;;5.45;4.38;;;18.80;99.90;;;;;;5068758;28;20202;-73
2021/08/03 06:01:37;;;;;;;3.60;3.30;;;18.70;99.90;;;;;;5077754;28;20290;-72
2021/08/03 06:04:05;;;;;;;5.68;3.05;;;18.60;99.90;;;;;;5085677;28;20677;-73
2021/08/03 06:06:38;;;;;;;3.90;3.47;;;18.70;99.90;;;;;;5084405;28;20206;-71
2021/08/03 06:09:08;;;;;;;5.97;3.20;;;18.80;99.90;;;;;;5073666;28;20209;-71
2021/08/03 06:11:37;;;;;;;7.65;3.50;;;18.90;99.90;;;;;;5071513;28;20674;-74
2021/08/03 06:14:09;;;;;;;4.05;3.65;;;19.00;99.90;;;;;;5071038;28;20283;-74
2021/08/03 06:16:37;;;;;;;4.45;4.05;;;19.10;99.90;;;;;;5071268;28;20262;-73
2021/08/03 06:19:06;;;;;;;3.45;3.00;;;19.30;99.90;;;;;;5071431;28;20198;-73
2021/08/03 06:21:33;;;;;;;3.85;3.47;;;19.30;99.90;;;;;;5071233;28;20287;-74
2021/08/03 06:24:01;;;;;;;3.80;3.50;;;19.40;99.90;;;;;;5070947;28;20203;-73
2021/08/03 06:26:28;;;;;;;5.65;4.28;;;19.30;99.90;;;;;;5071007;28;20260;-74
2021/08/03 06:28:56;;;;;;;5.40;3.90;;;19.20;99.90;;;;;;5071361;28;20279;-73
2021/08/03 06:31:28;;;;;;;4.30;3.70;;;19.10;99.90;;;;;;5071727;28;20218;-73
2021/08/03 06:33:55;;;;;;;3.58;3.17;;;19.00;99.90;;;;;;5071629;28;20237;-73
2021/08/03 06:36:22;;;;;;;4.93;3.50;;;19.00;99.90;;;;;;5074929;28;20263;-76
2021/08/03 06:38:49;;;;;;;3.90;3.60;;;19.10;99.90;;;;;;5068283;28;20202;-73
2021/08/03 06:41:25;;;;;;;4.70;3.75;;;19.00;99.90;;;;;;5068823;28;20296;-76
2021/08/03 06:43:56;;;;;;;3.65;3.35;;;19.00;99.90;;;;;;5069246;28;20626;-75
2021/08/03 06:46:25;;;;;;;4.40;3.95;;;19.30;99.90;;;;;;5069800;28;20206;-74
2021/08/03 06:48:57;;;;;;;3.97;3.45;;;19.80;99.90;;;;;;5069941;28;20266;-75
2021/08/03 06:51:27;;;;;;;4.32;3.53;;;20.10;99.90;;;;;;5070781;28;20202;-75
2021/08/03 06:53:59;;;;;;;3.63;3.22;;;20.30;99.90;;;;;;5068989;28;20208;-76
2021/08/03 06:56:30;;;;;;;6.95;4.10;;;20.20;99.90;;;;;;5069900;28;20210;-75
2021/08/03 06:59:04;;;;;;;6.53;4.22;;;20.10;99.90;;;;;;5066704;28;20255;-76
2021/08/03 07:01:39;;;;;;;3.17;2.88;;;20.10;99.90;;;;;;5066356;28;20230;-76
2021/08/03 07:04:09;;;;;;;6.22;4.10;;;20.30;99.90;;;;;;5067599;28;20206;-76
2021/08/03 07:06:39;;;;;;;3.63;3.33;;;20.50;99.90;;;;;;5069044;28;20206;-80
2021/08/03 07:09:06;;;;;;;3.58;3.28;;;20.50;99.90;;;;;;5068625;28;20202;-76
2021/08/03 07:11:34;;;;;;;4.93;3.58;;;20.30;99.90;;;;;;5065962;28;20202;-76
2021/08/03 07:14:03;;;;;;;4.68;3.20;;;20.30;99.90;;;;;;5064896;28;20259;-77
2021/08/03 07:16:30;;;;;;;4.50;3.78;;;20.60;99.90;;;;;;5069456;28;20259;-76
2021/08/03 07:18:58;;;;;;;3.67;3.38;;;20.90;99.90;;;;;;5069357;28;20754;-77
2021/08/03 07:21:28;;;;;;;6.05;4.25;;;20.80;99.90;;;;;;5069376;28;20202;-75
2021/08/03 07:23:56;;;;;;;3.65;3.35;;;20.70;99.90;;;;;;5070615;28;20206;-75
2021/08/03 07:26:24;;;;;;;3.90;3.58;;;20.80;99.90;;;;;;5066045;28;20756;-77
2021/08/03 07:28:52;;;;;;;2.85;2.65;;;21.00;99.90;;;;;;5060263;28;20624;-77
2021/08/03 07:31:21;;;;;;;3.20;2.95;;;21.20;99.90;;;;;;5069727;28;20198;-75
2021/08/03 07:33:48;;;;;;;4.63;3.25;;;21.30;99.90;;;;;;5068684;28;20263;-71
2021/08/03 07:36:16;;;;;;;5.22;3.75;;;21.20;99.90;;;;;;5073771;28;20206;-77
2021/08/03 07:38:44;;;;;;;4.20;3.00;;;21.20;99.90;;;;;;5065667;28;20256;-74
2021/08/03 07:41:11;;;;;;;3.60;3.13;;;21.10;99.90;;;;;;5071643;28;20202;-73
2021/08/03 07:43:38;;;;;;;3.35;3.05;;;21.20;99.90;;;;;;5066989;28;20237;-72
2021/08/03 07:46:05;;;;;;;4.93;2.13;;;21.30;99.90;;;;;;5063818;28;20654;-72
2021/08/03 07:48:33;;;;;;;3.40;2.85;;;21.00;99.90;;;;;;5068397;28;20719;-73
2021/08/03 07:51:00;;;;;;;4.07;2.47;;;21.00;99.90;;;;;;5068890;28;20666;-73
2021/08/03 07:53:27;;;;;;;3.88;2.22;;;21.20;99.90;;;;;;5069953;28;20214;-74
2021/08/03 07:55:54;;;;;;;3.13;2.83;;;21.50;99.90;;;;;;5070160;28;20205;-73
2021/08/03 07:58:21;;;;;;;2.92;2.72;;;21.80;99.90;;;;;;5070031;28;20255;-74
2021/08/03 08:00:48;;;;;;;3.00;2.38;;;22.20;99.90;;;;;;5069857;28;20210;-73
2021/08/03 08:03:14;;;;;;;3.25;2.97;;;22.00;99.90;;;;;;5069738;28;20226;-77
2021/08/03 08:05:43;;;;;;;5.03;2.92;;;21.90;99.90;;;;;;5068989;28;20255;-74
2021/08/03 08:08:10;;;;;;;3.50;2.35;;;21.90;99.90;;;;;;5069199;28;20734;-74
2021/08/03 08:10:37;;;;;;;2.72;2.50;;;22.20;99.90;;;;;;5069200;28;20638;-74
2021/08/03 08:13:04;;;;;;;4.90;3.22;;;22.20;99.90;;;;;;5069407;28;20206;-74
2021/08/03 08:15:31;;;;;;;3.97;3.28;;;22.30;99.90;;;;;;5068031;28;20210;-73
2021/08/03 08:17:58;;;;;;;2.70;2.50;;;22.80;99.90;;;;;;5068961;28;20202;-74
2021/08/03 08:20:24;;;;;;;3.65;2.95;;;23.00;99.90;;;;;;5070422;28;20202;-74
2021/08/03 08:22:53;;;;;;;3.80;3.00;;;22.70;99.90;;;;;;5072677;28;20287;-73
2021/08/03 08:25:20;;;;;;;2.90;2.67;;;22.40;99.90;;;;;;5073150;28;20210;-74
2021/08/03 08:27:47;;;;;;;3.75;3.25;;;22.70;99.90;;;;;;5073424;28;20214;-74
2021/08/03 08:30:14;;;;;;;3.13;2.70;;;22.80;99.90;;;;;;5073206;28;20198;-73
2021/08/03 08:32:43;;;;;;;2.80;2.58;;;22.70;99.90;;;;;;5073966;28;20210;-74
2021/08/03 08:35:10;;;;;;;2.45;2.25;;;22.40;99.90;;;;;;5074414;28;20206;-72
2021/08/03 08:37:38;;;;;;;2.72;2.53;;;22.30;99.90;;;;;;5093905;28;20206;-71
2021/08/03 08:40:09;;;;;;;4.28;2.30;;;22.20;99.90;;;;;;5092555;28;20677;-74
2021/08/03 08:42:37;;;;;;;3.22;2.92;;;22.30;99.90;;;;;;5083827;28;20226;-75
2021/08/03 08:45:06;;;;;;;1.95;1.83;;;22.70;99.90;;;;;;5079976;28;20216;-76
2021/08/03 08:47:34;;;;;;;5.50;2.25;;;22.90;99.90;;;;;;5077500;28;20206;-73
2021/08/03 08:50:05;;;;;;;2.40;2.20;;;22.90;99.90;;;;;;5088584;28;20247;-75
2021/08/03 08:52:34;;;;;;;3.05;2.55;;;23.30;99.90;;;;;;5074219;28;20298;-75
2021/08/03 08:55:01;;;;;;;2.58;2.38;;;23.90;99.90;;;;;;5072742;28;20204;-76
2021/08/03 08:57:29;;;;;;;3.90;2.58;;;24.00;99.90;;;;;;5080660;28;20263;-74
2021/08/03 08:59:56;;;;;;;2.25;1.98;;;23.40;99.90;;;;;;5087913;28;20632;-74
2021/08/03 09:02:34;;;;;;;2.38;2.10;;;22.90;99.90;;;;;;5079621;28;20225;-75
2021/08/03 09:05:03;;;;;;;6.03;2.47;;;22.70;99.90;;;;;;5083514;28;20284;-75
2021/08/03 09:07:30;;;;;;;3.75;2.60;;;22.60;99.90;;;;;;5087571;28;20579;-75
2021/08/03 09:09:57;;;;;;;4.70;2.63;;;23.40;99.90;;;;;;5084101;28;20209;-73
2021/08/03 09:12:35;;;;;;;2.70;2.50;;;24.50;99.90;;;;;;5087891;28;20270;-74
2021/08/03 09:15:02;;;;;;;2.13;1.92;;;24.80;99.90;;;;;;5082749;28;20197;-74
2021/08/03 09:17:31;;;;;;;2.38;2.22;;;24.50;99.90;;;;;;5088229;28;20603;-75
2021/08/03 09:19:58;;;;;;;2.30;2.10;;;25.00;99.90;;;;;;5072554;28;20202;-76
2021/08/03 09:22:28;;;;;;;5.32;2.55;;;24.60;99.90;;;;;;5084835;28;20317;-75
2021/08/03 09:25:12;;;;;;;3.90;2.70;;;23.50;99.90;;;;;;5084996;28;20331;-75
2021/08/03 09:27:44;;;;;;;2.50;2.30;;;23.50;99.90;;;;;;5088570;28;20213;-76
2021/08/03 09:30:28;;;;;;;3.33;2.35;;;24.10;99.90;;;;;;5078729;28;20202;-76
2021/08/03 09:32:55;;;;;;;3.45;2.33;;;24.60;99.90;;;;;;5085767;28;20201;-76
2021/08/03 09:35:23;;;;;;;2.88;2.25;;;24.30;99.90;;;;;;5075556;28;20246;-75
2021/08/03 09:37:52;;;;;;;2.50;2.30;;;24.20;99.90;;;;;;5092854;28;20259;-75
2021/08/03 09:40:22;;;;;;;5.40;2.53;;;24.80;99.90;;;;;;5092403;28;20213;-76
2021/08/03 09:43:00;;;;;;;9.02;2.45;;;26.10;99.90;;;;;;5092501;28;20287;-76
2021/08/03 09:45:29;;;;;;;2.83;2.05;;;26.70;99.90;;;;;;5088376;28;20202;-76
2021/08/03 09:48:11;;;;;;;2.90;2.22;;;26.80;99.90;;;;;;5074929;28;20213;-76
2021/08/03 09:50:54;;;;;;;2.88;2.05;;;25.50;99.90;;;;;;5079989;28;20205;-76
2021/08/03 09:53:45;;;;;;;4.40;2.17;;;25.20;99.90;;;;;;5073842;28;20249;-76
2021/08/03 09:56:14;;;;;;;3.38;2.67;;;24.60;99.90;;;;;;5065097;28;20236;-76
2021/08/03 09:58:57;;;;;;;2.50;2.30;;;24.20;99.90;;;;;;5079111;28;20273;-76
2021/08/03 10:01:29;;;;;;;2.10;1.90;;;23.90;99.90;;;;;;5068430;28;20252;-74
2021/08/03 10:04:00;;;;;;;3.20;2.10;;;23.60;99.90;;;;;;5072948;28;20355;-74
2021/08/03 10:06:27;;;;;;;3.85;2.60;;;23.50;99.90;;;;;;5070371;28;20202;-74
2021/08/03 10:08:55;;;;;;;3.42;2.63;;;23.70;99.90;;;;;;5069980;28;20662;-74
2021/08/03 10:11:24;;;;;;;3.55;2.33;;;24.70;99.90;;;;;;5069954;28;20253;-74
2021/08/03 10:13:52;;;;;;;2.85;2.17;;;24.50;99.90;;;;;;5070127;28;20259;-74
2021/08/03 10:16:21;;;;;;;2.10;2.00;;;23.80;99.90;;;;;;5066687;28;20682;-75
2021/08/03 10:18:50;;;;;;;2.47;2.28;;;23.40;99.90;;;;;;5070772;28;20205;-74
2021/08/03 10:21:23;;;;;;;2.40;2.20;;;23.20;99.90;;;;;;5069683;28;20255;-74
2021/08/03 10:23:52;;;;;;;5.50;3.13;;;23.10;99.90;;;;;;5067659;28;20230;-74
2021/08/03 10:26:19;;;;;;;3.47;2.65;;;22.90;99.90;;;;;;5070838;28;20592;-74
2021/08/03 10:28:46;;;;;;;12.25;4.57;;;22.90;99.90;;;;;;5072722;28;20206;-73
2021/08/03 10:31:40;;;;;;;6.88;4.70;;;22.90;99.90;;;;;;5083748;28;20201;-74
2021/08/03 10:34:08;;;;;;;4.13;3.38;;;22.90;99.90;;;;;;5067820;28;20260;-74
2021/08/03 10:36:47;;;;;;;3.70;3.28;;;22.80;99.90;;;;;;5078532;28;20263;-74
2021/08/03 10:39:16;;;;;;;3.70;2.90;;;22.80;99.90;;;;;;5064927;28;20198;-75
2021/08/03 10:42:08;;;;;;;3.08;2.78;;;23.30;99.90;;;;;;5091807;28;20258;-75
2021/08/03 10:44:40;;;;;;;3.28;2.53;;;23.60;99.90;;;;;;5061730;28;20313;-74
2021/08/03 10:47:46;;;;;;;2.42;2.22;;;23.70;99.90;;;;;;5085435;28;20263;-75
2021/08/03 10:50:16;;;;;;;2.90;2.70;;;24.60;99.90;;;;;;5084164;28;20204;-73
2021/08/03 10:52:53;;;;;;;2.40;2.20;;;25.50;99.90;;;;;;5091469;28;20271;-74
2021/08/03 10:55:37;;;;;;;2.97;2.67;;;24.40;99.90;;;;;;5091067;28;20209;-74
2021/08/03 10:58:24;;;;;;;6.00;2.55;;;24.40;99.90;;;;;;5066911;28;20259;-73
2021/08/03 11:00:53;;;;;;;4.15;2.75;;;24.60;99.90;;;;;;5091305;28;20217;-76
2021/08/03 11:03:44;;;;;;;4.03;2.58;;;24.80;99.90;;;;;;5090598;28;20225;-74
2021/08/03 11:06:36;;;;;;;4.20;3.20;;;24.60;99.90;;;;;;5074207;28;20210;-76
2021/08/03 11:09:34;;;;;;;4.25;2.85;;;25.00;99.90;;;;;;5068840;28;20263;-76
2021/08/03 11:12:36;;;;;;;3.08;2.67;;;24.60;99.90;;;;;;5079130;28;20669;-76
2021/08/03 11:15:38;;;;;;;2.60;2.33;;;24.90;99.90;;;;;;5073959;28;20201;-75
2021/08/03 11:18:09;;;;;;;2.70;2.50;;;24.90;99.90;;;;;;5066095;28;20202;-74
2021/08/03 11:21:11;;;;;;;3.42;2.25;;;25.40;99.90;;;;;;5067771;28;20211;-76
2021/08/03 11:24:11;;;;;;;2.50;2.30;;;25.80;99.90;;;;;;5068026;28;20243;-75
2021/08/03 11:26:49;;;;;;;2.85;2.55;;;25.70;99.90;;;;;;5067955;28;20217;-74
2021/08/03 11:29:17;;;;;;;4.63;3.25;;;25.70;99.90;;;;;;5068212;28;20292;-77
2021/08/03 11:31:51;;;;;;;2.08;1.88;;;25.90;99.90;;;;;;5068280;28;20627;-75
2021/08/03 11:34:24;;;;;;;3.33;2.53;;;24.80;99.90;;;;;;5068235;28;20706;-74
2021/08/03 11:37:08;;;;;;;2.88;2.65;;;24.10;99.90;;;;;;5070394;28;20214;-75
2021/08/03 11:39:37;;;;;;;3.45;2.63;;;24.30;99.90;;;;;;5068338;28;20198;-74
2021/08/03 11:42:04;;;;;;;4.28;2.22;;;24.80;99.90;;;;;;5068175;28;20198;-74
2021/08/03 11:44:31;;;;;;;2.20;2.00;;;25.30;99.90;;;;;;5068511;28;20238;-73
2021/08/03 11:47:01;;;;;;;2.88;2.67;;;25.30;99.90;;;;;;5067670;28;20206;-73
2021/08/03 11:49:34;;;;;;;3.35;2.72;;;25.20;99.90;;;;;;5068484;28;20213;-74
2021/08/03 11:52:15;;;;;;;3.08;2.60;;;25.00;99.90;;;;;;5067945;28;20202;-75
2021/08/03 11:54:45;;;;;;;4.55;2.47;;;25.80;99.90;;;;;;5066795;28;20259;-74
2021/08/03 11:57:30;;;;;;;3.10;2.67;;;26.00;99.90;;;;;;5069460;28;20629;-75
2021/08/03 12:00:12;;;;;;;4.50;2.47;;;25.80;99.90;;;;;;5069759;28;20735;-76
2021/08/03 12:02:40;;;;;;;2.67;2.47;;;26.30;99.90;;;;;;5069854;28;20286;-75
2021/08/03 12:05:13;;;;;;;2.03;1.92;;;26.20;99.90;;;;;;5072287;28;20271;-78
2021/08/03 12:07:48;;;;;;;2.53;2.33;;;25.80;99.90;;;;;;5074180;28;20453;-77
2021/08/03 12:10:15;;;;;;;3.45;2.35;;;25.70;99.90;;;;;;5073017;28;20251;-78
2021/08/03 12:12:44;;;;;;;2.42;1.85;;;25.80;99.90;;;;;;5064763;28;20788;-76
2021/08/03 12:15:13;;;;;;;3.25;2.20;;;25.80;99.90;;;;;;5067372;28;20259;-76
2021/08/03 12:17:40;;;;;;;2.78;2.58;;;25.80;99.90;;;;;;5072057;28;20202;-77
2021/08/03 12:20:29;;;;;;;2.53;1.80;;;26.10;99.90;;;;;;5077509;28;20198;-74
2021/08/03 12:23:24;;;;;;;4.00;3.55;;;25.90;99.90;;;;;;5074548;28;20202;-80
2021/08/03 12:25:57;;;;;;;2.38;2.15;;;26.20;99.90;;;;;;5071009;28;20201;-77
2021/08/03 12:28:29;;;;;;;4.90;2.72;;;26.20;99.90;;;;;;5073905;28;20214;-75
2021/08/03 12:30:56;;;;;;;3.40;2.83;;;26.10;99.90;;;;;;5073421;28;20259;-75
2021/08/03 12:33:31;;;;;;;4.38;2.45;;;25.80;99.90;;;;;;5073575;28;20282;-77
2021/08/03 12:36:06;;;;;;;2.75;2.55;;;26.00;99.90;;;;;;5079668;28;20209;-74
2021/08/03 12:38:35;;;;;;;3.00;2.75;;;26.20;99.90;;;;;;5093010;28;20200;-75
2021/08/03 12:41:15;;;;;;;3.20;2.90;;;26.00;99.90;;;;;;5093868;28;20318;-75
2021/08/03 12:43:43;;;;;;;2.72;2.40;;;25.80;99.90;;;;;;5093642;28;20233;-76
2021/08/03 12:46:10;;;;;;;2.63;2.42;;;26.00;99.90;;;;;;5093308;28;20212;-76
2021/08/03 12:48:38;;;;;;;2.88;2.63;;;26.30;99.90;;;;;;5093552;28;20209;-75
2021/08/03 12:51:05;;;;;;;3.50;2.97;;;26.00;99.90;;;;;;5093678;28;20284;-75
2021/08/03 12:53:35;;;;;;;2.83;2.42;;;25.60;99.90;;;;;;5093878;28;20217;-75
2021/08/03 12:56:27;;;;;;;2.88;2.00;;;26.00;99.90;;;;;;5093056;28;20209;-76
2021/08/03 12:58:54;;;;;;;3.00;2.75;;;26.40;99.90;;;;;;5093370;28;20205;-75
2021/08/03 13:01:23;;;;;;;3.40;2.85;;;26.50;99.90;;;;;;5093996;28;20202;-75
2021/08/03 13:03:51;;;;;;;3.70;3.13;;;26.80;99.90;;;;;;5088571;28;20230;-76
2021/08/03 13:06:18;;;;;;;2.97;2.42;;;26.30;99.90;;;;;;5071078;28;20268;-75